Time;durP1;ratioP1;P1;durP2;ratioP2;P2;SDS_P1;SDS_P2;PMS_P1;PMS_P2;Temp;Humidity;BMP_temperature;BMP_pressure;BME280_temperature;BME280_humidity;BME280_pressure;Samples;Min_cycle;Max_cycle;Signal;HPM_P1;HPM_P2
2022/04/24 00:02:19;;;;;;;;;25.50;20.75;;;;;16.28;56.13;99593.94;4989936;28;46007;-62
2022/04/24 00:04:44;;;;;;;;;18.75;15.75;;;;;16.26;56.09;99582.59;4988465;28;45274;-62
2022/04/24 00:07:09;;;;;;;;;16.75;16.75;;;;;16.26;56.15;99591.41;4982649;28;45590;-62
2022/04/24 00:09:37;;;;;;;;;20.00;18.75;;;;;16.23;56.03;99585.56;4989690;28;45296;-62
2022/04/24 00:12:04;;;;;;;;;13.50;12.25;;;;;16.18;56.09;99581.53;4987683;28;45495;-61
2022/04/24 00:14:30;;;;;;;;;20.25;17.75;;;;;16.14;56.25;99577.53;4987293;28;45479;-61
2022/04/24 00:16:55;;;;;;;;;20.75;19.50;;;;;16.07;56.15;99576.50;4977329;28;45464;-62
2022/04/24 00:19:21;;;;;;;;;21.75;20.75;;;;;16.04;56.58;99570.66;4986865;28;45482;-62
2022/04/24 00:21:47;;;;;;;;;21.00;17.25;;;;;16.03;56.49;99572.47;4987943;28;45806;-63
2022/04/24 00:24:12;;;;;;;;;15.00;14.25;;;;;15.99;56.45;99568.47;4987383;28;45475;-61
2022/04/24 00:26:38;;;;;;;;;16.75;15.75;;;;;15.98;56.65;99571.28;4990641;28;45388;-62
2022/04/24 00:29:04;;;;;;;;;16.75;15.75;;;;;15.96;56.29;99568.78;4990231;28;45318;-63
2022/04/24 00:31:30;;;;;;;;;18.00;16.25;;;;;15.94;56.52;99578.69;4989437;28;46200;-63
2022/04/24 00:33:55;;;;;;;;;21.00;19.00;;;;;15.90;56.55;99570.22;4979865;28;45739;-61
2022/04/24 00:36:21;;;;;;;;;17.25;16.00;;;;;15.89;56.61;99573.03;4988802;28;45432;-63
2022/04/24 00:38:46;;;;;;;;;15.25;15.00;;;;;15.84;56.40;99570.81;4991559;28;45515;-65
2022/04/24 00:41:12;;;;;;;;;21.75;19.00;;;;;15.83;57.06;99578.94;4985330;28;46236;-63
2022/04/24 00:43:37;;;;;;;;;21.50;18.50;;;;;15.81;56.80;99578.28;4988066;28;45572;-63
2022/04/24 00:46:14;;;;;;;;;21.00;18.25;;;;;15.79;56.70;99574.91;4988157;28;45495;-63
2022/04/24 00:48:44;;;;;;;;;20.75;16.50;;;;;15.74;56.70;99578.03;4977742;28;45485;-63
2022/04/24 00:51:11;;;;;;;;;19.00;17.25;;;;;15.68;57.09;99576.00;4988886;28;45808;-63
2022/04/24 00:53:37;;;;;;;;;17.25;17.25;;;;;15.67;57.31;99576.16;4991041;28;45630;-63
2022/04/24 00:56:05;;;;;;;;;17.00;13.25;;;;;15.65;57.20;99573.66;4990727;28;45492;-63
2022/04/24 00:58:32;;;;;;;;;21.25;16.50;;;;;15.60;57.06;99575.88;4988510;28;45492;-63
2022/04/24 01:00:58;;;;;;;;;19.25;17.75;;;;;15.54;57.24;99585.28;4989935;28;46305;-63
2022/04/24 01:03:23;;;;;;;;;19.50;13.25;;;;;15.52;56.98;99589.09;4987174;28;45420;-63
2022/04/24 01:05:49;;;;;;;;;17.00;16.25;;;;;15.48;57.40;99585.03;4992160;28;45363;-63
2022/04/24 01:08:14;;;;;;;;;15.75;15.75;;;;;15.48;57.28;99591.22;4989633;28;45384;-63
2022/04/24 01:10:40;;;;;;;;;14.75;14.00;;;;;15.45;57.29;99593.31;4974443;28;47763;-63
2022/04/24 01:13:06;;;;;;;;;20.00;18.50;;;;;15.42;57.25;99585.66;4988635;28;45910;-63
2022/04/24 01:15:33;;;;;;;;;19.50;17.00;;;;;15.38;57.08;99595.72;4989631;28;45373;-63
2022/04/24 01:17:59;;;;;;;;;14.25;11.00;;;;;15.38;57.35;99595.72;4984533;28;45720;-63
2022/04/24 01:20:25;;;;;;;;;18.75;17.00;;;;;15.35;57.31;99598.69;4987421;28;47652;-63
2022/04/24 01:22:51;;;;;;;;;15.50;14.00;;;;;15.32;57.25;99594.53;4990583;28;45903;-63
2022/04/24 01:25:16;;;;;;;;;17.75;14.00;;;;;15.28;57.18;99593.16;4990268;28;45562;-63
2022/04/24 01:27:42;;;;;;;;;18.25;17.00;;;;;15.26;57.39;99595.13;4985180;28;45847;-62
2022/04/24 01:30:08;;;;;;;;;23.75;17.00;;;;;15.27;57.46;99595.94;4987748;28;46212;-63
2022/04/24 01:32:34;;;;;;;;;14.50;12.50;;;;;15.26;57.26;99600.44;4987182;28;45732;-63
2022/04/24 01:35:00;;;;;;;;;16.25;14.25;;;;;15.26;57.18;99608.38;4991103;28;45510;-63
2022/04/24 01:37:26;;;;;;;;;24.75;21.50;;;;;15.26;57.01;99596.94;4985340;28;45648;-63
2022/04/24 01:39:55;;;;;;;;;19.50;16.50;;;;;15.24;56.98;99602.38;4971119;28;46728;-62
2022/04/24 01:42:21;;;;;;;;;20.00;19.25;;;;;15.23;57.34;99602.53;4982179;28;45651;-63
2022/04/24 01:44:47;;;;;;;;;17.50;16.00;;;;;15.23;57.27;99607.81;4991490;28;45419;-63
2022/04/24 01:47:12;;;;;;;;;10.50;10.25;;;;;15.23;56.90;99605.19;4989571;28;45376;-63
2022/04/24 01:49:38;;;;;;;;;15.75;14.75;;;;;15.23;56.89;99606.00;4988506;28;45357;-63
2022/04/24 01:52:07;;;;;;;;;15.50;15.50;;;;;15.23;56.77;99605.19;4983486;28;45389;-62
2022/04/24 01:54:32;;;;;;;;;15.25;13.50;;;;;15.22;56.59;99604.34;4986634;28;45373;-63
2022/04/24 01:56:58;;;;;;;;;17.25;16.75;;;;;15.19;56.64;99598.50;4990531;28;45513;-63
2022/04/24 01:59:23;;;;;;;;;16.50;16.00;;;;;15.19;56.62;99612.59;4989365;28;46353;-63
2022/04/24 02:01:49;;;;;;;;;16.00;15.00;;;;;15.21;56.69;99612.47;4988768;28;45460;-62
2022/04/24 02:04:16;;;;;;;;;16.00;14.75;;;;;15.18;57.00;99618.91;4986249;28;46725;-62
2022/04/24 02:06:42;;;;;;;;;17.50;14.00;;;;;15.18;56.89;99610.94;4989862;28;45517;-63
2022/04/24 02:09:07;;;;;;;;;16.00;15.50;;;;;15.17;56.67;99616.41;4988516;28;45837;-62
2022/04/24 02:11:33;;;;;;;;;16.50;16.25;;;;;15.13;56.85;99615.00;4988654;28;45500;-63
2022/04/24 02:13:58;;;;;;;;;11.50;11.50;;;;;15.07;56.55;99622.56;4984039;28;46286;-62
2022/04/24 02:16:24;;;;;;;;;13.75;12.25;;;;;15.05;56.58;99621.88;4989226;28;45487;-63
2022/04/24 02:18:49;;;;;;;;;13.50;13.50;;;;;15.02;56.85;99622.19;4989794;28;45494;-63
2022/04/24 02:21:15;;;;;;;;;18.75;16.50;;;;;15.02;56.91;99627.50;4988473;28;45497;-63
2022/04/24 02:23:41;;;;;;;;;11.75;10.25;;;;;15.01;56.85;99623.19;4985438;28;45453;-63
2022/04/24 02:26:06;;;;;;;;;20.25;18.50;;;;;14.98;56.73;99630.56;4983979;28;45551;-63
2022/04/24 02:28:31;;;;;;;;;20.25;18.50;;;;;14.92;56.73;99624.03;4985748;28;45619;-63
2022/04/24 02:30:57;;;;;;;;;31.25;31.25;;;;;14.92;56.84;99629.31;4989564;28;45312;-63
2022/04/24 02:33:22;;;;;;;;;26.75;17.25;;;;;14.91;56.94;99629.47;4988932;28;45933;-62
2022/04/24 02:35:48;;;;;;;;;17.50;15.25;;;;;14.88;57.02;99635.91;4987155;28;45446;-62
2022/04/24 02:38:13;;;;;;;;;15.75;14.50;;;;;14.88;56.92;99627.13;4983082;28;45698;-62
2022/04/24 02:40:39;;;;;;;;;15.50;14.50;;;;;14.90;57.26;99630.47;4988756;28;45369;-62
2022/04/24 02:43:05;;;;;;;;;15.25;13.00;;;;;14.88;56.79;99627.97;4989950;28;45439;-62
2022/04/24 02:45:31;;;;;;;;;16.50;14.50;;;;;14.86;56.82;99634.41;4978739;28;45739;-63
2022/04/24 02:47:56;;;;;;;;;15.75;14.50;;;;;14.86;57.08;99629.94;4986576;28;45937;-63
2022/04/24 02:50:23;;;;;;;;;17.00;14.75;;;;;14.86;57.59;99637.06;4985525;28;45506;-62
2022/04/24 02:52:54;;;;;;;;;17.25;14.50;;;;;14.84;57.51;99634.53;4978730;28;45600;-62
2022/04/24 02:55:21;;;;;;;;;15.25;15.25;;;;;14.82;57.46;99630.34;4988541;28;45440;-62
2022/04/24 02:57:47;;;;;;;;;15.75;15.25;;;;;14.79;57.63;99634.97;4984070;28;47657;-62
2022/04/24 03:00:21;;;;;;;;;16.25;15.75;;;;;14.79;57.52;99640.28;4985080;28;45948;-62
2022/04/24 03:02:47;;;;;;;;;13.75;13.00;;;;;14.74;57.85;99645.16;4985354;28;45480;-62
2022/04/24 03:05:15;;;;;;;;;17.00;15.00;;;;;14.70;57.45;99643.81;4989206;28;45499;-62
2022/04/24 03:07:41;;;;;;;;;23.00;18.00;;;;;14.69;57.49;99646.56;4956039;28;46927;-62
2022/04/24 03:10:08;;;;;;;;;14.25;13.75;;;;;14.70;57.11;99643.81;4988866;28;45379;-62
2022/04/24 03:12:35;;;;;;;;;16.25;16.25;;;;;14.71;57.22;99648.13;4986713;28;45725;-62
2022/04/24 03:15:00;;;;;;;;;13.75;13.75;;;;;14.72;57.34;99639.19;4986506;28;45464;-62
2022/04/24 03:17:26;;;;;;;;;16.75;13.50;;;;;14.74;57.00;99650.47;4986196;28;46466;-62
2022/04/24 03:19:52;;;;;;;;;17.00;16.75;;;;;14.74;57.23;99652.28;4989509;28;45951;-62
2022/04/24 03:22:17;;;;;;;;;26.00;17.25;;;;;14.74;57.11;99654.94;4986762;28;45436;-62
2022/04/24 03:24:43;;;;;;;;;16.25;16.00;;;;;14.73;57.17;99656.75;4987134;28;45771;-62
2022/04/24 03:27:08;;;;;;;;;21.50;17.00;;;;;14.69;57.04;99662.47;4984671;28;45472;-62
2022/04/24 03:29:34;;;;;;;;;15.25;14.75;;;;;14.66;56.76;99653.00;4985318;28;45493;-62
2022/04/24 03:31:59;;;;;;;;;18.50;17.50;;;;;14.65;57.04;99661.09;4988859;28;45508;-62
2022/04/24 03:34:24;;;;;;;;;15.25;14.50;;;;;14.60;57.07;99660.69;4988425;28;45440;-62
2022/04/24 03:36:50;;;;;;;;;16.50;14.00;;;;;14.62;56.98;99656.09;4985460;28;45543;-62
2022/04/24 03:39:15;;;;;;;;;21.00;16.75;;;;;14.62;57.08;99656.94;4985740;28;45404;-62
2022/04/24 03:41:41;;;;;;;;;19.25;18.00;;;;;14.62;57.37;99658.75;4982731;28;45561;-62
2022/04/24 03:44:07;;;;;;;;;24.75;21.00;;;;;14.57;57.44;99659.16;4987713;28;45523;-62
2022/04/24 03:46:32;;;;;;;;;23.50;19.75;;;;;14.54;57.36;99662.13;4971974;28;45448;-62
2022/04/24 03:48:58;;;;;;;;;23.25;20.50;;;;;14.53;57.70;99665.72;4986955;28;45510;-62
2022/04/24 03:51:23;;;;;;;;;23.25;21.00;;;;;14.53;57.55;99663.06;4985123;28;45490;-62
2022/04/24 03:53:48;;;;;;;;;29.00;24.50;;;;;14.47;57.61;99664.50;4985262;28;45532;-62
2022/04/24 03:56:14;;;;;;;;;24.75;22.25;;;;;14.47;58.11;99663.66;4983924;28;46095;-62
2022/04/24 03:58:39;;;;;;;;;24.25;21.50;;;;;14.45;57.72;99660.25;4988703;28;45390;-62
2022/04/24 04:01:05;;;;;;;;;19.25;18.25;;;;;14.45;58.13;99666.44;4990079;28;45402;-62
2022/04/24 04:03:30;;;;;;;;;23.00;21.75;;;;;14.44;58.36;99666.53;4987859;28;45684;-62
2022/04/24 04:05:56;;;;;;;;;27.50;20.50;;;;;14.44;58.07;99675.31;4991221;28;45742;-62
2022/04/24 04:08:21;;;;;;;;;20.75;15.00;;;;;14.41;57.70;99678.28;4990674;28;45413;-62
2022/04/24 04:10:47;;;;;;;;;15.00;14.00;;;;;14.40;57.37;99681.91;4989889;28;45552;-62
2022/04/24 04:13:13;;;;;;;;;26.50;21.75;;;;;14.40;57.79;99687.19;4988090;28;45468;-62
2022/04/24 04:15:39;;;;;;;;;16.00;14.00;;;;;14.40;57.91;99683.72;4991773;28;45627;-62
2022/04/24 04:18:04;;;;;;;;;20.00;17.00;;;;;14.38;57.77;99683.88;4990993;28;45478;-62
2022/04/24 04:20:30;;;;;;;;;23.00;18.00;;;;;14.35;57.81;99684.13;4989362;28;45624;-62
2022/04/24 04:22:56;;;;;;;;;16.50;15.25;;;;;14.35;58.04;99683.28;4988597;28;45452;-62
2022/04/24 04:25:25;;;;;;;;;14.25;13.75;;;;;14.32;57.94;99686.22;4987073;28;45849;-62
2022/04/24 04:27:54;;;;;;;;;17.00;15.75;;;;;14.33;58.01;99685.25;4969168;28;45725;-62
2022/04/24 04:30:20;;;;;;;;;15.50;14.00;;;;;14.33;57.98;99688.75;4988968;28;45530;-62
2022/04/24 04:32:45;;;;;;;;;18.25;16.50;;;;;14.33;58.13;99687.91;4989327;28;45440;-62
2022/04/24 04:35:11;;;;;;;;;19.00;15.75;;;;;14.33;57.92;99694.03;4984929;28;45555;-62
2022/04/24 04:37:37;;;;;;;;;17.25;15.00;;;;;14.33;58.04;99696.69;4991897;28;45480;-62
2022/04/24 04:40:07;;;;;;;;;15.75;15.75;;;;;14.34;57.92;99695.69;4989767;28;45773;-62
2022/04/24 04:42:33;;;;;;;;;19.75;19.50;;;;;14.36;57.60;99699.03;4988396;28;46290;-62
2022/04/24 04:45:00;;;;;;;;;18.25;16.75;;;;;14.34;58.07;99700.16;4986851;28;45408;-62
2022/04/24 04:47:29;;;;;;;;;16.75;13.25;;;;;14.32;57.69;99700.31;4987867;28;45459;-62
2022/04/24 04:49:55;;;;;;;;;18.25;15.00;;;;;14.31;58.23;99692.50;4992017;28;45512;-62
2022/04/24 04:52:22;;;;;;;;;13.00;13.00;;;;;14.34;58.12;99706.31;4989470;28;45431;-62
2022/04/24 04:54:47;;;;;;;;;19.00;16.00;;;;;14.35;58.20;99701.84;4989329;28;45539;-62
2022/04/24 04:57:13;;;;;;;;;17.75;16.00;;;;;14.34;57.93;99706.31;4987650;28;45651;-62
2022/04/24 04:59:39;;;;;;;;;17.25;16.50;;;;;14.35;57.99;99712.44;4986036;28;45516;-62
2022/04/24 05:02:05;;;;;;;;;21.75;20.25;;;;;14.34;58.06;99708.13;4973255;28;45570;-62
2022/04/24 05:04:30;;;;;;;;;20.00;18.00;;;;;14.34;58.19;99716.06;4991298;28;46071;-62
2022/04/24 05:06:56;;;;;;;;;21.00;17.75;;;;;14.33;58.49;99715.22;4989612;28;45491;-62
2022/04/24 05:09:21;;;;;;;;;16.50;15.50;;;;;14.32;58.23;99718.84;4987388;28;45436;-62
2022/04/24 05:11:47;;;;;;;;;20.75;16.25;;;;;14.30;57.89;99726.13;4989015;28;45503;-63
2022/04/24 05:14:12;;;;;;;;;21.25;17.50;;;;;14.30;58.51;99727.91;4991651;28;45512;-62
2022/04/24 05:16:38;;;;;;;;;19.50;15.25;;;;;14.24;58.60;99730.16;4989620;28;45633;-62
2022/04/24 05:19:06;;;;;;;;;19.25;17.25;;;;;14.24;58.28;99738.09;4972683;28;45461;-62
2022/04/24 05:21:32;;;;;;;;;21.50;18.75;;;;;14.22;58.58;99739.22;4986921;28;45464;-62
2022/04/24 05:23:57;;;;;;;;;15.25;14.75;;;;;14.22;58.33;99740.06;4984990;28;45904;-62
2022/04/24 05:26:23;;;;;;;;;19.00;18.00;;;;;14.18;58.53;99741.28;4990967;28;45399;-62
2022/04/24 05:28:48;;;;;;;;;19.25;15.50;;;;;14.23;58.64;99748.84;4990856;28;45396;-62
2022/04/24 05:31:14;;;;;;;;;18.25;16.25;;;;;14.22;58.49;99749.81;4989387;28;45406;-61
2022/04/24 05:33:40;;;;;;;;;19.25;18.00;;;;;14.23;58.29;99748.84;4971856;28;45371;-63
2022/04/24 05:36:06;;;;;;;;;21.00;16.75;;;;;14.24;58.32;99751.34;4986893;28;45343;-63
2022/04/24 05:38:32;;;;;;;;;21.25;19.00;;;;;14.26;58.27;99759.13;4991849;28;45527;-63
2022/04/24 05:40:57;;;;;;;;;17.00;16.00;;;;;14.28;58.13;99756.34;4991025;28;45373;-63
2022/04/24 05:43:23;;;;;;;;;15.25;14.50;;;;;14.31;58.04;99761.38;4987847;28;46096;-63
2022/04/24 05:45:48;;;;;;;;;22.75;20.00;;;;;14.34;58.07;99763.75;4987436;28;45376;-63
2022/04/24 05:48:15;;;;;;;;;19.00;18.75;;;;;14.39;57.92;99764.19;4988140;28;45439;-60
2022/04/24 05:50:41;;;;;;;;;16.75;16.50;;;;;14.43;58.13;99765.56;4989932;28;45560;-63
2022/04/24 05:53:06;;;;;;;;;23.25;22.50;;;;;14.49;58.10;99776.47;4988537;28;45514;-63
2022/04/24 05:55:32;;;;;;;;;21.75;17.25;;;;;14.58;58.24;99772.16;4987326;28;45410;-61
2022/04/24 05:57:57;;;;;;;;;21.25;17.75;;;;;14.60;57.90;99766.69;4985169;28;45695;-62
2022/04/24 06:00:23;;;;;;;;;19.50;17.50;;;;;14.67;57.74;99773.94;4984552;28;45463;-61
2022/04/24 06:02:48;;;;;;;;;24.50;21.00;;;;;14.71;57.81;99772.72;4988868;28;45552;-61
2022/04/24 06:05:14;;;;;;;;;21.25;17.00;;;;;14.79;57.88;99779.97;4990636;28;45424;-62
2022/04/24 06:07:41;;;;;;;;;24.00;22.00;;;;;14.86;57.22;99775.78;4987363;28;45625;-61
2022/04/24 06:10:09;;;;;;;;;24.00;23.50;;;;;14.98;57.30;99776.44;4987315;28;45427;-62
2022/04/24 06:12:47;;;;;;;;;21.50;20.00;;;;;15.05;57.46;99778.38;4985895;28;45559;-63
2022/04/24 06:15:15;;;;;;;;;18.75;17.25;;;;;15.12;57.11;99780.47;4987867;28;45427;-63
2022/04/24 06:17:48;;;;;;;;;23.00;17.25;;;;;15.17;56.86;99783.53;4989582;28;45842;-63
2022/04/24 06:20:14;;;;;;;;;27.75;20.75;;;;;15.21;56.91;99788.38;4983675;28;45587;-62
2022/04/24 06:22:43;;;;;;;;;15.50;13.00;;;;;15.25;56.80;99791.59;4987373;28;46052;-61
2022/04/24 06:25:09;;;;;;;;;22.75;19.50;;;;;15.29;56.75;99782.34;4985748;28;45694;-61
2022/04/24 06:27:35;;;;;;;;;23.00;18.75;;;;;15.35;56.80;99795.06;4989803;28;45508;-62
2022/04/24 06:30:01;;;;;;;;;19.00;18.25;;;;;15.40;56.71;99786.63;4987821;28;45567;-62
2022/04/24 06:32:30;;;;;;;;;22.00;20.00;;;;;15.45;56.84;99795.84;4987067;28;45815;-62
2022/04/24 06:34:55;;;;;;;;;25.25;24.25;;;;;15.55;56.50;99798.47;4974918;28;45472;-62
2022/04/24 06:37:21;;;;;;;;;21.25;17.75;;;;;15.61;56.32;99805.88;4989381;28;45499;-61
2022/04/24 06:39:46;;;;;;;;;29.00;24.50;;;;;15.68;55.78;99809.63;4979602;28;45512;-62
2022/04/24 06:42:12;;;;;;;;;27.50;25.25;;;;;15.76;55.54;99808.91;4977948;28;46797;-61
2022/04/24 06:44:37;;;;;;;;;31.25;28.00;;;;;15.78;54.92;99810.41;4987316;28;45469;-62
2022/04/24 06:47:03;;;;;;;;;31.25;27.50;;;;;15.81;54.82;99804.81;4970737;28;45526;-62
2022/04/24 06:49:29;;;;;;;;;33.50;30.00;;;;;15.88;55.04;99805.91;4974285;28;47063;-62
2022/04/24 06:51:54;;;;;;;;;35.50;31.25;;;;;15.89;54.32;99804.94;4967350;28;46060;-61
2022/04/24 06:54:20;;;;;;;;;35.75;32.00;;;;;15.90;54.58;99809.25;4977450;28;45456;-62
2022/04/24 06:56:45;;;;;;;;;36.50;28.25;;;;;16.00;54.72;99800.38;4990364;28;45508;-62
2022/04/24 06:59:11;;;;;;;;;29.25;27.25;;;;;16.09;54.57;99813.59;4987537;28;45277;-61
2022/04/24 07:01:36;;;;;;;;;28.75;27.25;;;;;16.12;53.86;99809.84;4984782;28;45358;-62
2022/04/24 07:04:02;;;;;;;;;35.75;28.75;;;;;16.07;53.68;99818.25;4985826;28;45304;-62
2022/04/24 07:06:27;;;;;;;;;30.25;29.00;;;;;16.05;53.57;99816.72;4981234;28;45547;-62
2022/04/24 07:08:52;;;;;;;;;32.25;30.75;;;;;16.01;53.49;99810.84;4970315;28;45462;-62
2022/04/24 07:11:19;;;;;;;;;38.00;31.00;;;;;15.98;53.63;99807.69;4974485;28;47519;-61
2022/04/24 07:13:44;;;;;;;;;33.50;32.00;;;;;16.02;54.02;99806.38;4982750;28;45229;-62
2022/04/24 07:16:10;;;;;;;;;31.00;28.75;;;;;16.06;54.07;99813.91;4983764;28;45524;-61
2022/04/24 07:18:35;;;;;;;;;30.50;28.75;;;;;16.09;53.93;99821.56;4983702;28;45212;-62
2022/04/24 07:21:02;;;;;;;;;39.50;28.75;;;;;16.08;53.55;99827.03;4971735;28;47180;-61
2022/04/24 07:23:28;;;;;;;;;35.00;32.00;;;;;16.07;53.97;99822.72;4987043;28;45286;-64
2022/04/24 07:25:54;;;;;;;;;36.75;33.25;;;;;16.07;53.55;99831.53;4987139;28;45537;-62
2022/04/24 07:28:19;;;;;;;;;29.00;26.25;;;;;16.08;53.82;99840.31;4984299;28;45376;-62
2022/04/24 07:30:46;;;;;;;;;35.75;32.00;;;;;16.12;53.65;99834.59;4985618;28;46104;-62
2022/04/24 07:33:12;;;;;;;;;39.50;32.00;;;;;16.16;53.59;99835.09;4986749;28;45440;-63
2022/04/24 07:35:39;;;;;;;;;33.75;31.75;;;;;16.14;53.42;99845.06;4986118;28;45317;-63
2022/04/24 07:38:05;;;;;;;;;39.25;34.00;;;;;16.16;53.31;99840.41;4983893;28;45469;-64
2022/04/24 07:40:33;;;;;;;;;38.00;32.75;;;;;16.21;53.42;99842.66;4981506;28;46660;-64
2022/04/24 07:43:04;;;;;;;;;37.50;33.75;;;;;16.26;53.30;99843.84;4988580;28;45637;-67
2022/04/24 07:45:41;;;;;;;;;38.50;32.00;;;;;16.32;53.55;99843.25;4973350;28;45252;-64
2022/04/24 07:48:09;;;;;;;;;46.50;35.50;;;;;16.41;53.34;99846.84;4984563;28;45742;-65
2022/04/24 07:50:37;;;;;;;;;37.00;29.50;;;;;16.50;53.23;99847.75;4982527;28;45676;-66
2022/04/24 07:53:04;;;;;;;;;36.50;34.00;;;;;16.54;52.95;99852.63;4986950;28;45242;-65
2022/04/24 07:55:30;;;;;;;;;35.50;32.25;;;;;16.52;52.83;99857.28;4970431;28;45468;-65
2022/04/24 07:58:02;;;;;;;;;42.25;31.75;;;;;16.51;52.70;99855.59;4984555;28;45574;-65
2022/04/24 08:00:30;;;;;;;;;31.50;30.00;;;;;16.55;52.86;99862.28;4986687;28;45411;-65
2022/04/24 08:03:01;;;;;;;;;34.75;31.50;;;;;16.57;52.64;99865.63;4986804;28;45376;-65
2022/04/24 08:05:33;;;;;;;;;40.75;34.25;;;;;16.54;52.46;99873.91;4987799;28;45258;-65
2022/04/24 08:08:02;;;;;;;;;41.50;33.00;;;;;16.52;52.59;99870.56;4988028;28;45347;-65
2022/04/24 08:10:30;;;;;;;;;40.75;32.00;;;;;16.53;52.55;99874.91;4990124;28;46015;-65
2022/04/24 08:12:56;;;;;;;;;41.50;32.25;;;;;16.48;52.37;99864.69;4984661;28;45476;-65
2022/04/24 08:15:22;;;;;;;;;34.50;33.00;;;;;16.43;51.99;99867.00;4989534;28;46407;-65
2022/04/24 08:17:47;;;;;;;;;36.25;31.25;;;;;16.41;52.25;99871.59;4987851;28;45602;-65
2022/04/24 08:20:14;;;;;;;;;33.75;31.25;;;;;16.46;52.42;99872.00;4989133;28;46644;-65
2022/04/24 08:22:51;;;;;;;;;37.25;32.50;;;;;16.51;52.23;99870.69;4968845;28;45535;-65
2022/04/24 08:25:20;;;;;;;;;43.50;34.75;;;;;16.57;51.84;99867.44;4988355;28;45411;-65
2022/04/24 08:27:49;;;;;;;;;33.75;31.00;;;;;16.57;51.84;99873.59;4976978;28;45485;-65
2022/04/24 08:30:16;;;;;;;;;38.75;32.75;;;;;16.59;52.18;99860.13;4986152;28;45566;-66
2022/04/24 08:32:42;;;;;;;;;40.00;35.50;;;;;16.63;51.74;99862.38;4984923;28;45388;-65
2022/04/24 08:35:11;;;;;;;;;39.25;31.50;;;;;16.66;51.74;99879.81;4985538;28;45331;-64
2022/04/24 08:37:36;;;;;;;;;42.75;33.25;;;;;16.64;51.91;99871.16;4988681;28;45290;-65
2022/04/24 08:40:04;;;;;;;;;38.25;33.50;;;;;16.68;51.68;99876.06;4988007;28;45386;-65
2022/04/24 08:42:30;;;;;;;;;40.75;36.00;;;;;16.71;51.61;99873.09;4970236;28;45574;-66
2022/04/24 08:44:56;;;;;;;;;42.25;32.00;;;;;16.78;51.42;99875.16;4986443;28;45359;-66
2022/04/24 08:47:22;;;;;;;;;38.75;31.75;;;;;16.81;51.32;99880.16;4986948;28;45429;-65
2022/04/24 08:49:48;;;;;;;;;41.00;34.25;;;;;16.82;50.98;99880.00;4971722;28;47178;-65
2022/04/24 08:52:16;;;;;;;;;40.25;34.00;;;;;16.89;51.77;99882.91;4989870;28;45487;-65
2022/04/24 08:54:42;;;;;;;;;35.50;30.00;;;;;16.98;51.45;99882.00;4991140;28;45607;-65
2022/04/24 08:57:14;;;;;;;;;41.25;34.25;;;;;17.02;51.27;99881.53;4989080;28;45511;-70
2022/04/24 08:59:39;;;;;;;;;38.00;30.75;;;;;17.10;51.14;99887.94;5004358;28;45266;-61
2022/04/24 09:02:06;;;;;;;;;33.25;26.00;;;;;17.13;50.49;99880.47;4989268;28;45258;-59
2022/04/24 09:04:35;;;;;;;;;42.75;32.50;;;;;17.14;50.73;99884.81;4991406;28;45227;-58
2022/04/24 09:07:04;;;;;;;;;35.00;31.75;;;;;17.19;50.97;99881.69;4991011;28;45409;-59
2022/04/24 09:09:42;;;;;;;;;41.50;33.75;;;;;17.24;51.19;99885.56;4989432;28;46371;-58
2022/04/24 09:12:16;;;;;;;;;40.00;34.00;;;;;17.31;50.48;99893.75;4993049;28;45545;-59
2022/04/24 09:14:50;;;;;;;;;36.25;33.25;;;;;17.30;50.33;99890.28;4989987;28;45326;-60
2022/04/24 09:17:22;;;;;;;;;42.25;34.00;;;;;17.36;50.13;99896.78;4988140;28;45449;-59
2022/04/24 09:19:48;;;;;;;;;38.00;31.25;;;;;17.39;50.30;99888.50;4987304;28;45365;-58
2022/04/24 09:22:14;;;;;;;;;33.25;31.50;;;;;17.47;49.81;99893.88;4991612;28;45167;-57
2022/04/24 09:24:42;;;;;;;;;32.00;30.75;;;;;17.55;49.71;99898.44;4991935;28;45540;-57
2022/04/24 09:27:09;;;;;;;;;36.25;32.25;;;;;17.63;49.46;99908.31;4990254;28;45512;-60
2022/04/24 09:29:37;;;;;;;;;38.00;28.00;;;;;17.64;49.41;99904.63;4987930;28;45757;-57
2022/04/24 09:32:09;;;;;;;;;35.25;30.75;;;;;17.66;49.82;99908.81;4987730;28;45532;-57
2022/04/24 09:34:35;;;;;;;;;36.50;32.25;;;;;17.68;49.32;99905.97;4989275;28;45499;-57
2022/04/24 09:37:03;;;;;;;;;34.25;30.50;;;;;17.65;48.85;99909.81;4989455;28;45384;-57
2022/04/24 09:39:31;;;;;;;;;33.50;31.25;;;;;17.64;49.04;99913.47;4987999;28;45473;-57
2022/04/24 09:42:13;;;;;;;;;34.50;29.00;;;;;17.70;49.48;99906.69;4986796;28;45284;-57
2022/04/24 09:44:45;;;;;;;;;39.75;31.50;;;;;17.80;49.83;99908.28;4988704;28;45245;-58
2022/04/24 09:47:12;;;;;;;;;39.00;32.75;;;;;17.92;49.38;99916.81;4988905;28;45478;-58
2022/04/24 09:49:39;;;;;;;;;34.25;30.75;;;;;18.01;48.88;99913.22;4984832;28;46103;-58
2022/04/24 09:52:27;;;;;;;;;35.25;30.50;;;;;18.09;48.80;99915.94;4983195;28;45371;-59
2022/04/24 09:54:54;;;;;;;;;36.50;32.25;;;;;18.20;49.32;99914.81;4980699;28;45769;-58
2022/04/24 09:57:23;;;;;;;;;34.50;32.25;;;;;18.27;48.69;99909.66;4982691;28;45527;-57
2022/04/24 09:59:50;;;;;;;;;28.25;25.00;;;;;18.32;48.57;99920.66;4985252;28;45357;-59
2022/04/24 10:02:18;;;;;;;;;32.75;26.25;;;;;18.35;48.42;99926.53;4988248;28;45454;-59
2022/04/24 10:04:45;;;;;;;;;31.50;29.25;;;;;18.38;48.03;99926.19;4984885;28;45498;-58
2022/04/24 10:07:13;;;;;;;;;35.50;28.75;;;;;18.41;47.86;99925.91;4981994;28;45631;-59
2022/04/24 10:09:44;;;;;;;;;34.00;30.00;;;;;18.47;47.99;99923.56;4984150;28;46092;-62
2022/04/24 10:12:17;;;;;;;;;36.25;27.25;;;;;18.50;48.05;99923.25;4984058;28;45407;-67
2022/04/24 10:14:54;;;;;;;;;35.00;30.25;;;;;18.55;47.41;99926.25;4983674;28;45147;-68
2022/04/24 10:17:51;;;;;;;;;37.50;32.00;;;;;18.55;47.62;99931.59;4972459;28;45356;-68
2022/04/24 10:20:25;;;;;;;;;35.25;32.50;;;;;18.49;47.66;99930.41;4969945;28;47071;-60
2022/04/24 10:22:54;;;;;;;;;33.00;30.50;;;;;18.55;48.52;99929.75;4972357;28;45524;-61
2022/04/24 10:25:35;;;;;;;;;41.25;32.75;;;;;18.65;48.02;99932.31;4975320;28;45367;-63
2022/04/24 10:28:16;;;;;;;;;35.25;31.00;;;;;18.76;48.22;99933.84;4963961;28;45282;-65
2022/04/24 10:30:47;;;;;;;;;41.00;33.50;;;;;18.91;48.42;99929.56;4976019;28;45450;-70
2022/04/24 10:33:22;;;;;;;;;34.00;28.75;;;;;19.05;47.65;99939.59;4974523;28;45545;-63
2022/04/24 10:35:54;;;;;;;;;35.00;31.00;;;;;19.10;47.55;99931.91;4983337;28;45373;-66
2022/04/24 10:38:22;;;;;;;;;35.25;30.50;;;;;19.10;46.77;99941.75;4989332;28;45503;-66
2022/04/24 10:41:19;;;;;;;;;39.50;31.75;;;;;19.17;46.92;99942.75;4975825;28;45573;-64
2022/04/24 10:43:46;;;;;;;;;40.00;30.50;;;;;19.23;46.76;99953.63;4962221;28;45457;-64
2022/04/24 10:46:33;;;;;;;;;36.50;31.25;;;;;19.24;49.31;99959.78;4976562;28;45443;-56
2022/04/24 10:49:16;;;;;;;;;34.50;29.25;;;;;19.38;49.20;99952.97;4986799;28;45416;-55
2022/04/24 10:51:56;;;;;;;;;30.75;28.50;;;;;19.51;48.81;99955.94;4985739;28;45472;-56
2022/04/24 10:54:31;;;;;;;;;26.00;24.25;;;;;19.59;48.57;99958.66;4982566;28;45403;-59
2022/04/24 10:56:57;;;;;;;;;31.50;30.00;;;;;19.68;48.38;99962.16;4981949;28;45266;-60
2022/04/24 10:59:23;;;;;;;;;31.50;28.75;;;;;19.78;47.41;99968.16;4978115;28;45532;-63
2022/04/24 11:01:54;;;;;;;;;34.00;30.25;;;;;19.86;46.86;99959.28;4968518;28;45344;-62
2022/04/24 11:04:22;;;;;;;;;27.25;24.50;;;;;19.83;46.33;99964.97;4968458;28;45448;-64
2022/04/24 11:07:02;;;;;;;;;28.00;26.00;;;;;19.67;46.65;99963.16;4971574;28;45440;-63
2022/04/24 11:09:35;;;;;;;;;29.25;28.25;;;;;19.52;46.59;99965.66;4980934;28;45309;-63
2022/04/24 11:12:05;;;;;;;;;29.25;25.25;;;;;19.45;46.49;99978.84;4981232;28;46588;-63
2022/04/24 11:14:31;;;;;;;;;25.00;24.25;;;;;19.48;47.67;99973.16;4980520;28;45472;-63
2022/04/24 11:16:59;;;;;;;;;27.00;25.25;;;;;19.60;46.30;99976.38;4979767;28;45646;-63
2022/04/24 11:19:30;;;;;;;;;32.25;26.75;;;;;19.84;46.43;99978.19;4979470;28;45646;-63